Time;durP1;ratioP1;P1;durP2;ratioP2;P2;SDS_P1;SDS_P2;PMS_P1;PMS_P2;Temp;Humidity;BMP_temperature;BMP_pressure;BME280_temperature;BME280_humidity;BME280_pressure;Samples;Min_cycle;Max_cycle;Signal;HPM_P1;HPM_P2
2022/01/09 00:00:30;;;;;;;12.73;4.80;;;;;;;20.32;15.25;97166.34;4961472;28;20510;-75
2022/01/09 00:02:56;;;;;;;14.65;5.78;;;;;;;19.99;15.68;97162.63;4960485;29;20565;-75
2022/01/09 00:05:22;;;;;;;11.40;4.88;;;;;;;20.15;15.20;97166.69;4960357;29;20534;-76
2022/01/09 00:07:49;;;;;;;14.88;5.97;;;;;;;20.58;14.92;97159.00;4960924;28;20139;-75
2022/01/09 00:10:16;;;;;;;14.95;5.75;;;;;;;21.13;14.41;97149.75;4966898;28;20031;-76
2022/01/09 00:12:42;;;;;;;9.88;4.43;;;;;;;21.70;14.01;97166.63;4963415;28;20027;-76
2022/01/09 00:15:10;;;;;;;13.20;5.60;;;;;;;22.06;13.63;97155.25;4963060;28;20039;-75
2022/01/09 00:17:37;;;;;;;16.52;5.10;;;;;;;22.29;13.42;97145.81;4974943;28;20042;-76
2022/01/09 00:20:05;;;;;;;13.57;4.28;;;;;;;22.56;13.21;97144.19;4984085;28;20389;-76
2022/01/09 00:22:39;;;;;;;12.15;5.30;;;;;;;22.67;13.03;97144.66;4979878;28;20177;-76
2022/01/09 00:25:05;;;;;;;12.65;5.47;;;;;;;22.71;13.05;97141.75;4974350;28;20035;-75
2022/01/09 00:27:31;;;;;;;13.68;5.03;;;;;;;22.75;13.03;97133.25;4978986;28;20038;-75
2022/01/09 00:29:57;;;;;;;12.77;5.28;;;;;;;22.85;12.72;97130.09;4975294;28;20035;-75
2022/01/09 00:32:24;;;;;;;13.27;5.47;;;;;;;22.59;13.27;97131.31;4972952;28;20034;-75
2022/01/09 00:34:50;;;;;;;15.70;6.07;;;;;;;22.36;13.45;97120.41;4977808;28;20037;-75
2022/01/09 00:37:16;;;;;;;15.18;5.22;;;;;;;22.19;13.73;97116.16;4976332;28;20022;-75
2022/01/09 00:39:42;;;;;;;11.80;4.25;;;;;;;22.25;13.87;97115.16;4982548;28;20026;-75
2022/01/09 00:42:08;;;;;;;11.40;4.28;;;;;;;22.07;13.50;97114.13;4979625;28;20105;-75
2022/01/09 00:44:34;;;;;;;12.23;5.15;;;;;;;21.87;13.50;97112.28;4984860;28;20034;-75
2022/01/09 00:47:00;;;;;;;12.70;4.68;;;;;;;21.78;13.35;97106.50;4978446;28;20039;-76
2022/01/09 00:49:27;;;;;;;12.52;5.00;;;;;;;21.49;13.65;97110.53;4979372;28;20427;-76
2022/01/09 00:51:54;;;;;;;11.65;4.55;;;;;;;21.32;13.89;97107.78;4975905;28;20026;-75
2022/01/09 00:54:20;;;;;;;14.30;5.00;;;;;;;21.54;13.76;97098.84;4976732;28;20042;-75
2022/01/09 00:56:46;;;;;;;11.20;4.63;;;;;;;21.66;13.54;97098.88;4979082;28;20029;-75
2022/01/09 00:59:12;;;;;;;14.52;5.65;;;;;;;21.67;13.32;97097.66;4973266;28;20042;-75
2022/01/09 01:01:38;;;;;;;15.80;5.22;;;;;;;21.83;13.36;97091.22;4975720;28;20045;-75
2022/01/09 01:04:05;;;;;;;11.30;4.72;;;;;;;21.69;13.36;97088.81;4976100;28;20030;-75
2022/01/09 01:06:31;;;;;;;11.77;5.35;;;;;;;21.72;13.37;97085.16;4971039;28;20469;-75
2022/01/09 01:08:57;;;;;;;14.82;6.13;;;;;;;21.71;13.36;97078.78;4977186;28;20573;-75
2022/01/09 01:11:23;;;;;;;15.35;4.95;;;;;;;21.47;13.65;97077.44;4976684;28;20074;-75
2022/01/09 01:13:49;;;;;;;14.13;4.70;;;;;;;21.29;13.66;97077.94;4984178;28;20064;-75
2022/01/09 01:16:15;;;;;;;15.48;5.88;;;;;;;21.37;13.61;97078.53;4975827;28;20491;-75
2022/01/09 01:18:44;;;;;;;12.85;4.72;;;;;;;21.43;13.54;97076.75;4973421;28;20110;-76
2022/01/09 01:21:11;;;;;;;9.95;5.10;;;;;;;21.29;13.59;97074.34;4975166;28;20446;-75
2022/01/09 01:23:37;;;;;;;10.00;4.43;;;;;;;21.49;13.67;97080.59;4975712;28;20031;-75
2022/01/09 01:26:03;;;;;;;13.93;5.50;;;;;;;21.77;13.42;97071.44;4973813;28;20400;-75
2022/01/09 01:28:30;;;;;;;12.13;5.47;;;;;;;21.92;13.44;97064.22;4975226;28;20035;-75
2022/01/09 01:30:57;;;;;;;12.07;5.18;;;;;;;21.98;13.40;97065.22;4970736;28;20139;-76
2022/01/09 01:33:24;;;;;;;16.73;6.78;;;;;;;22.10;13.24;97065.72;4972625;28;20408;-75
2022/01/09 01:35:50;;;;;;;11.90;5.78;;;;;;;21.69;13.67;97058.88;4975143;28;20395;-76
2022/01/09 01:38:17;;;;;;;12.90;5.30;;;;;;;21.98;13.49;97067.25;4976032;28;20110;-75
2022/01/09 01:40:43;;;;;;;14.15;6.05;;;;;;;22.14;13.45;97058.78;4974102;28;20114;-75
2022/01/09 01:43:10;;;;;;;13.95;5.47;;;;;;;21.97;13.86;97052.50;4973419;28;20077;-75
2022/01/09 01:45:36;;;;;;;10.52;4.97;;;;;;;21.58;14.15;97049.25;4974485;28;20030;-75
2022/01/09 01:48:06;;;;;;;13.38;5.63;;;;;;;21.91;13.92;97045.13;4960550;28;20035;-75
2022/01/09 01:50:37;;;;;;;16.10;6.00;;;;;;;21.99;13.71;97040.88;4973253;28;20039;-75
2022/01/09 01:53:06;;;;;;;14.75;5.55;;;;;;;21.11;14.25;97035.75;4968572;28;20286;-75
2022/01/09 01:55:36;;;;;;;12.63;5.15;;;;;;;20.23;15.11;97034.38;4973038;28;20161;-76
2022/01/09 01:58:04;;;;;;;10.93;4.00;;;;;;;20.65;14.60;97033.34;4972061;28;20035;-76
2022/01/09 02:00:30;;;;;;;17.55;6.00;;;;;;;21.20;14.35;97023.97;4973702;28;20114;-76
2022/01/09 02:02:56;;;;;;;14.10;4.55;;;;;;;21.83;13.80;97026.94;4970829;28;20035;-76
2022/01/09 02:05:22;;;;;;;13.63;4.43;;;;;;;22.35;13.63;97018.97;4970985;28;20088;-76
2022/01/09 02:07:51;;;;;;;12.77;5.82;;;;;;;22.46;13.24;97019.41;4974291;28;20402;-76
2022/01/09 02:10:17;;;;;;;13.15;4.63;;;;;;;22.55;13.28;97013.13;4972909;28;20062;-76
2022/01/09 02:12:44;;;;;;;10.73;4.60;;;;;;;22.55;13.37;97013.13;4977961;28;20038;-76
2022/01/09 02:15:49;;;;;;;11.68;4.55;;;;;;;22.77;13.30;97010.44;4971279;28;20117;-76
2022/01/09 02:18:16;;;;;;;10.32;4.63;;;;;;;23.03;13.12;97011.97;4896244;29;20087;-76
2022/01/09 02:20:43;;;;;;;12.30;4.32;;;;;;;23.04;13.28;97008.69;4888392;29;20587;-76
2022/01/09 02:23:10;;;;;;;10.30;3.95;;;;;;;22.75;13.10;97005.31;4931767;28;20092;-76
2022/01/09 02:25:37;;;;;;;11.07;4.30;;;;;;;22.20;13.43;96991.91;4974828;28;20055;-76
2022/01/09 02:28:07;;;;;;;12.43;4.88;;;;;;;21.41;14.22;97001.03;4972027;28;20093;-76
2022/01/09 02:30:34;;;;;;;13.02;4.53;;;;;;;21.40;14.46;96998.69;4969342;28;20031;-76
2022/01/09 02:33:06;;;;;;;12.23;4.60;;;;;;;21.48;14.01;96995.25;4972465;28;20031;-76
2022/01/09 02:35:33;;;;;;;12.65;5.18;;;;;;;21.63;14.01;96982.44;4969909;28;20022;-76
2022/01/09 02:38:00;;;;;;;11.05;4.18;;;;;;;21.81;14.16;96990.28;4966967;28;20027;-76
2022/01/09 02:40:26;;;;;;;12.98;4.88;;;;;;;22.24;13.72;96992.59;4968017;28;20041;-76
2022/01/09 02:42:53;;;;;;;14.20;5.13;;;;;;;22.05;13.84;96986.00;4972158;28;20050;-76
2022/01/09 02:45:23;;;;;;;10.95;4.03;;;;;;;22.00;14.05;96990.13;4972269;28;20490;-76
2022/01/09 02:47:51;;;;;;;13.10;4.80;;;;;;;22.02;14.20;96986.88;4971686;28;20372;-76
2022/01/09 02:50:31;;;;;;;8.38;4.03;;;;;;;22.39;13.64;96988.09;4973281;28;20030;-76
2022/01/09 02:53:00;;;;;;;8.63;3.67;;;;;;;22.78;13.31;96984.03;4983274;28;20058;-76
2022/01/09 02:55:29;;;;;;;10.23;4.50;;;;;;;22.62;13.36;96984.97;4974295;28;20490;-76
2022/01/09 02:57:58;;;;;;;9.00;3.60;;;;;;;22.79;13.62;96978.00;4975285;28;20371;-76
2022/01/09 03:00:30;;;;;;;10.45;3.85;;;;;;;22.89;13.31;96967.66;4978569;28;20041;-76
2022/01/09 03:02:57;;;;;;;9.32;3.53;;;;;;;22.87;13.35;96962.50;4976985;28;20027;-76
2022/01/09 03:05:24;;;;;;;10.38;3.63;;;;;;;23.13;13.19;96968.78;4971692;28;20510;-76
2022/01/09 03:07:51;;;;;;;10.70;4.28;;;;;;;23.28;12.88;96959.44;4980202;28;20035;-76
2022/01/09 03:10:18;;;;;;;11.13;4.35;;;;;;;23.07;13.03;96965.03;4978551;28;20133;-76
2022/01/09 03:12:46;;;;;;;12.00;4.63;;;;;;;22.71;13.09;96962.66;4980923;28;20122;-76
2022/01/09 03:15:12;;;;;;;10.02;4.60;;;;;;;22.49;13.49;96959.78;4970543;28;20062;-76
2022/01/09 03:17:39;;;;;;;8.02;3.60;;;;;;;22.56;13.79;96964.34;4979997;28;20534;-76
2022/01/09 03:20:09;;;;;;;8.45;3.80;;;;;;;22.41;13.69;96961.25;4968812;28;20030;-76
2022/01/09 03:22:35;;;;;;;9.85;3.88;;;;;;;21.80;14.17;96953.19;4976762;28;20050;-76
2022/01/09 03:25:03;;;;;;;11.10;3.80;;;;;;;21.80;14.51;96953.19;4979540;28;20130;-76
2022/01/09 03:27:29;;;;;;;8.95;3.85;;;;;;;22.24;14.15;96959.03;4980935;28;20039;-76
2022/01/09 03:29:55;;;;;;;9.23;3.80;;;;;;;22.66;13.48;96961.22;4977868;28;20379;-77
2022/01/09 03:32:21;;;;;;;9.88;3.70;;;;;;;23.10;13.41;96958.53;4976146;28;21835;-76
2022/01/09 03:34:47;;;;;;;8.40;3.50;;;;;;;23.40;13.17;96949.44;4971944;28;20078;-76
2022/01/09 03:37:13;;;;;;;9.63;4.07;;;;;;;23.33;13.57;96950.47;4970826;28;20094;-76
2022/01/09 03:39:39;;;;;;;8.13;4.07;;;;;;;23.15;13.67;96955.91;4978354;28;20026;-76
2022/01/09 03:42:06;;;;;;;9.63;3.97;;;;;;;21.94;14.09;96935.22;4983174;28;20031;-76
2022/01/09 03:44:32;;;;;;;10.70;3.95;;;;;;;21.76;14.31;96940.53;4979763;28;20031;-76
2022/01/09 03:46:58;;;;;;;7.70;3.78;;;;;;;22.01;14.39;96927.41;4985129;28;20034;-76
2022/01/09 03:49:24;;;;;;;10.75;3.50;;;;;;;22.24;13.92;96920.66;4985579;28;20045;-76
2022/01/09 03:51:52;;;;;;;7.68;3.40;;;;;;;21.83;14.22;96915.19;4973380;28;20031;-76
2022/01/09 03:54:21;;;;;;;10.68;3.80;;;;;;;21.70;14.63;96922.78;4977579;28;20368;-76
2022/01/09 03:56:48;;;;;;;9.23;3.50;;;;;;;21.84;14.46;96911.97;4981394;28;20040;-76
2022/01/09 03:59:15;;;;;;;7.55;3.30;;;;;;;22.12;14.48;96910.28;4979762;28;20040;-76
2022/01/09 04:01:41;;;;;;;9.90;3.78;;;;;;;22.23;13.87;96913.50;4984541;28;20130;-76
2022/01/09 04:04:07;;;;;;;8.25;3.55;;;;;;;22.40;14.02;96908.56;4980102;28;20027;-76
2022/01/09 04:06:33;;;;;;;8.38;3.60;;;;;;;22.84;13.39;96906.66;4980762;28;20047;-76
2022/01/09 04:09:06;;;;;;;11.57;4.65;;;;;;;22.67;13.58;96898.44;4972385;28;20414;-76
2022/01/09 04:11:37;;;;;;;10.88;3.70;;;;;;;22.31;13.63;96906.44;4975173;28;20113;-75
2022/01/09 04:14:04;;;;;;;10.35;3.85;;;;;;;22.37;13.63;96912.25;4979386;28;20034;-76
2022/01/09 04:16:30;;;;;;;8.32;3.63;;;;;;;22.74;13.31;96916.22;4971263;28;20043;-76
2022/01/09 04:18:56;;;;;;;12.18;4.93;;;;;;;22.22;13.58;96900.00;4974434;28;20441;-76
2022/01/09 04:21:22;;;;;;;12.65;5.43;;;;;;;21.44;14.11;96890.47;4970582;28;20482;-76
2022/01/09 04:23:48;;;;;;;8.52;3.85;;;;;;;20.90;14.67;96891.19;4973546;28;20031;-75
2022/01/09 04:26:14;;;;;;;8.48;3.97;;;;;;;20.84;14.89;96895.75;4971548;28;20070;-76
2022/01/09 04:28:40;;;;;;;11.65;3.92;;;;;;;21.06;14.28;96899.53;4968177;28;20037;-76
2022/01/09 04:31:06;;;;;;;11.63;4.38;;;;;;;20.87;14.40;96892.06;4971813;28;20118;-76
2022/01/09 04:33:32;;;;;;;8.38;4.38;;;;;;;21.25;14.15;96892.22;4975367;28;20474;-76
2022/01/09 04:35:58;;;;;;;11.88;4.95;;;;;;;21.59;13.81;96900.75;4969923;28;20018;-76
2022/01/09 04:38:24;;;;;;;10.10;4.72;;;;;;;21.61;13.70;96900.31;4973708;28;20038;-76
2022/01/09 04:40:50;;;;;;;7.38;3.85;;;;;;;21.82;13.53;96906.00;4981193;28;20034;-76
2022/01/09 04:43:17;;;;;;;10.52;4.32;;;;;;;21.74;13.54;96904.69;4974818;28;20030;-76
2022/01/09 04:45:43;;;;;;;11.45;4.57;;;;;;;21.20;13.98;96893.56;4977501;28;20034;-76
2022/01/09 04:48:12;;;;;;;9.68;4.70;;;;;;;21.11;14.19;96907.38;4972833;28;20158;-76
2022/01/09 04:50:39;;;;;;;8.57;4.43;;;;;;;21.35;14.07;96900.25;4975321;28;20114;-76
2022/01/09 04:53:08;;;;;;;9.70;4.03;;;;;;;21.55;14.08;96896.50;4975751;28;20049;-76
2022/01/09 04:55:38;;;;;;;8.77;4.22;;;;;;;21.41;14.08;96906.09;4975117;28;20038;-76
2022/01/09 04:58:05;;;;;;;10.18;4.57;;;;;;;21.00;14.41;96895.72;4976356;28;20434;-76
2022/01/09 05:00:31;;;;;;;8.23;3.75;;;;;;;20.38;14.91;96901.78;4975181;28;20039;-76
2022/01/09 05:02:57;;;;;;;7.43;3.63;;;;;;;20.67;14.89;96895.03;4977997;28;20038;-76
2022/01/09 05:05:24;;;;;;;11.05;3.83;;;;;;;20.49;14.88;96894.69;4973839;28;20499;-76
2022/01/09 05:07:50;;;;;;;9.10;4.40;;;;;;;20.30;15.11;96900.41;4975876;28;20037;-76
2022/01/09 05:10:16;;;;;;;6.80;3.85;;;;;;;20.10;15.37;96892.09;4974197;28;20031;-76
2022/01/09 05:12:42;;;;;;;7.90;4.03;;;;;;;20.11;15.39;96892.88;4966736;28;20034;-76
2022/01/09 05:15:09;;;;;;;9.60;4.35;;;;;;;20.31;15.21;96897.16;4972215;28;20403;-76
2022/01/09 05:17:36;;;;;;;9.32;4.32;;;;;;;19.74;15.58;96894.19;4975996;28;20097;-76
2022/01/09 05:20:04;;;;;;;9.82;3.60;;;;;;;19.24;16.00;96888.91;4976631;28;20053;-76
2022/01/09 05:22:31;;;;;;;10.85;4.55;;;;;;;18.30;17.10;96901.44;4974615;28;20058;-76
2022/01/09 05:24:58;;;;;;;9.57;4.43;;;;;;;18.62;16.95;96893.31;4974578;28;20479;-76
2022/01/09 05:27:25;;;;;;;11.00;4.40;;;;;;;18.94;16.64;96897.50;4967201;28;20432;-76
2022/01/09 05:29:51;;;;;;;11.23;4.60;;;;;;;19.35;16.02;96894.25;4972461;28;20394;-77
2022/01/09 05:32:17;;;;;;;8.02;3.83;;;;;;;20.13;15.62;96893.22;4974321;28;20403;-76
2022/01/09 05:34:44;;;;;;;9.90;4.20;;;;;;;20.13;15.56;96896.03;4977427;28;20085;-76
2022/01/09 05:37:10;;;;;;;8.25;4.03;;;;;;;20.19;15.40;96905.41;4988969;28;20035;-76
2022/01/09 05:39:36;;;;;;;9.30;4.05;;;;;;;20.44;15.19;96897.25;4974774;28;20434;-76
2022/01/09 05:42:06;;;;;;;8.90;3.72;;;;;;;21.15;14.56;96896.09;4974844;28;20085;-76
2022/01/09 05:44:32;;;;;;;9.52;5.28;;;;;;;20.91;14.95;96898.34;4967669;28;20035;-76
2022/01/09 05:46:59;;;;;;;9.02;3.85;;;;;;;20.74;14.83;96894.03;4974714;28;20398;-76
2022/01/09 05:49:25;;;;;;;9.20;3.67;;;;;;;21.27;14.64;96898.13;4972907;28;20065;-76
2022/01/09 05:51:51;;;;;;;7.78;4.00;;;;;;;21.95;14.11;96906.03;4971175;28;20045;-76
2022/01/09 05:54:17;;;;;;;12.63;5.05;;;;;;;22.35;13.68;96915.50;4977136;28;20114;-76
2022/01/09 05:56:43;;;;;;;11.90;4.85;;;;;;;22.26;13.80;96918.22;4973037;28;20034;-76
2022/01/09 05:59:10;;;;;;;14.70;5.60;;;;;;;21.43;14.34;96928.78;4975057;28;20429;-76
2022/01/09 06:01:36;;;;;;;9.57;4.75;;;;;;;21.56;14.62;96926.78;4975106;28;20042;-76
2022/01/09 06:04:03;;;;;;;12.13;4.35;;;;;;;21.98;14.48;96924.72;4979170;28;20039;-76
2022/01/09 06:06:29;;;;;;;12.18;5.32;;;;;;;22.62;13.88;96929.00;4976156;28;20045;-76
2022/01/09 06:08:55;;;;;;;11.07;5.15;;;;;;;22.73;13.70;96932.25;4974938;28;20062;-76
2022/01/09 06:11:21;;;;;;;9.95;5.13;;;;;;;22.90;13.77;96936.41;4974118;28;20077;-76
2022/01/09 06:13:47;;;;;;;9.25;4.55;;;;;;;23.16;13.48;96921.06;4973370;28;20027;-76
2022/01/09 06:16:13;;;;;;;11.52;5.03;;;;;;;23.07;13.53;96925.81;4973110;28;20047;-76
2022/01/09 06:18:40;;;;;;;14.30;5.10;;;;;;;22.93;13.78;96929.13;4955982;28;20033;-76
2022/01/09 06:21:06;;;;;;;9.07;4.47;;;;;;;22.98;13.86;96922.94;4975085;28;20030;-76
2022/01/09 06:23:32;;;;;;;9.82;4.70;;;;;;;23.10;13.48;96924.91;4972835;28;20031;-76
2022/01/09 06:25:58;;;;;;;11.20;4.22;;;;;;;23.31;13.44;96927.69;4977320;28;20039;-76
2022/01/09 06:28:24;;;;;;;10.13;4.78;;;;;;;23.24;13.09;96925.16;4968507;28;20037;-76
2022/01/09 06:30:50;;;;;;;13.65;5.03;;;;;;;23.04;13.40;96937.91;4975703;28;20035;-76
2022/01/09 06:33:17;;;;;;;12.27;5.35;;;;;;;23.07;13.27;96937.81;4982789;28;20034;-76
2022/01/09 06:35:44;;;;;;;11.20;5.05;;;;;;;23.19;13.48;96931.38;4972003;28;20093;-75
2022/01/09 06:38:10;;;;;;;11.13;4.63;;;;;;;23.31;13.38;96938.91;4971905;28;20058;-75
2022/01/09 06:40:37;;;;;;;11.45;5.22;;;;;;;23.24;13.59;96941.97;4976659;28;20077;-76
2022/01/09 06:43:03;;;;;;;11.18;5.15;;;;;;;22.88;13.72;96941.69;4965955;28;20034;-75
2022/01/09 06:45:29;;;;;;;8.57;4.80;;;;;;;22.35;14.05;96946.28;4972448;28;20486;-76
2022/01/09 06:47:57;;;;;;;13.88;5.38;;;;;;;22.27;14.48;96949.72;4962716;28;20126;-76
2022/01/09 06:50:25;;;;;;;12.00;5.43;;;;;;;22.18;14.32;96944.03;4971527;28;20038;-76
2022/01/09 06:52:51;;;;;;;9.48;4.43;;;;;;;22.48;14.12;96940.66;4980996;28;20037;-76
2022/01/09 06:55:18;;;;;;;9.50;4.28;;;;;;;22.43;13.69;96939.19;4974384;28;20031;-76
2022/01/09 06:57:44;;;;;;;11.52;5.43;;;;;;;22.42;13.83;96943.25;4975070;28;20046;-76
2022/01/09 07:00:12;;;;;;;14.80;5.10;;;;;;;22.60;14.04;96943.44;4969532;28;20043;-76
2022/01/09 07:02:38;;;;;;;12.52;5.28;;;;;;;22.50;14.00;96943.75;4972902;28;20027;-76
2022/01/09 07:05:05;;;;;;;8.07;4.68;;;;;;;21.41;14.74;96936.03;4974450;28;20039;-76
2022/01/09 07:07:31;;;;;;;10.88;5.35;;;;;;;19.70;16.22;96935.22;4969163;28;20111;-76
2022/01/09 07:09:58;;;;;;;10.57;5.18;;;;;;;19.80;16.21;96943.38;4968202;28;20469;-76
2022/01/09 07:12:24;;;;;;;12.30;5.50;;;;;;;20.42;15.79;96942.28;4945034;28;20123;-76
2022/01/09 07:14:50;;;;;;;10.25;4.60;;;;;;;21.40;15.02;96948.44;4969552;28;20039;-76
2022/01/09 07:17:17;;;;;;;10.98;5.45;;;;;;;21.83;14.79;96940.31;4970314;28;20088;-76
2022/01/09 07:19:43;;;;;;;9.88;4.85;;;;;;;22.35;14.30;96937.09;4966663;28;20423;-76
2022/01/09 07:22:09;;;;;;;13.65;5.60;;;;;;;22.29;14.62;96936.09;4970242;28;20035;-76
2022/01/09 07:24:35;;;;;;;11.40;4.22;;;;;;;22.43;14.60;96941.22;4967203;28;20475;-76
2022/01/09 07:27:01;;;;;;;8.90;3.92;;;;;;;22.49;14.26;96948.59;4966358;28;20042;-76
2022/01/09 07:29:27;;;;;;;12.23;5.35;;;;;;;22.30;14.14;96946.06;4968977;28;20042;-77
2022/01/09 07:31:53;;;;;;;9.88;5.13;;;;;;;21.95;14.44;96948.75;4972352;28;20066;-76
2022/01/09 07:34:20;;;;;;;12.70;6.57;;;;;;;21.37;14.67;96949.31;4968826;28;20027;-76
2022/01/09 07:36:47;;;;;;;11.55;5.50;;;;;;;21.56;14.75;96946.34;4967809;28;20032;-77
2022/01/09 07:39:13;;;;;;;12.68;5.38;;;;;;;21.92;14.40;96941.25;4969292;28;20402;-77
2022/01/09 07:41:43;;;;;;;12.75;6.28;;;;;;;21.77;14.63;96930.94;4970145;28;20030;-77
2022/01/09 07:44:09;;;;;;;12.30;5.45;;;;;;;21.74;14.61;96929.81;4966290;28;20039;-77
2022/01/09 07:46:35;;;;;;;9.63;4.63;;;;;;;21.05;15.42;96922.31;4968507;28;20034;-77
2022/01/09 07:49:02;;;;;;;15.27;5.60;;;;;;;20.96;15.61;96919.31;4967110;28;20042;-77
2022/01/09 07:51:28;;;;;;;13.48;6.25;;;;;;;21.29;15.43;96918.81;4964369;28;20033;-77
2022/01/09 07:53:54;;;;;;;13.07;5.72;;;;;;;21.84;14.89;96922.38;4967269;28;20058;-78
2022/01/09 07:56:21;;;;;;;10.27;5.07;;;;;;;22.26;14.80;96920.22;4966339;28;20092;-78
2022/01/09 07:58:47;;;;;;;14.68;6.50;;;;;;;22.95;13.89;96918.25;4963950;28;20047;-77
2022/01/09 08:01:14;;;;;;;13.95;5.82;;;;;;;22.82;14.03;96921.13;4963679;28;20503;-79
2022/01/09 08:03:40;;;;;;;13.88;6.25;;;;;;;22.91;13.69;96921.19;4967419;28;20039;-77
2022/01/09 08:06:06;;;;;;;11.77;6.10;;;;;;;22.96;14.04;96923.41;4969176;28;20047;-77
2022/01/09 08:08:32;;;;;;;15.02;6.43;;;;;;;22.51;14.14;96923.75;4966583;28;20043;-77
2022/01/09 08:10:58;;;;;;;12.98;6.07;;;;;;;22.70;14.38;96919.13;4969303;28;20061;-76
2022/01/09 08:13:24;;;;;;;11.43;5.07;;;;;;;23.07;13.81;96921.00;4964034;28;20493;-77
2022/01/09 08:15:50;;;;;;;14.93;6.60;;;;;;;22.99;13.74;96925.28;4972471;28;20490;-78
2022/01/09 08:18:16;;;;;;;10.23;5.50;;;;;;;23.09;13.53;96917.75;4965416;28;20695;-76
2022/01/09 08:20:42;;;;;;;12.63;5.82;;;;;;;23.16;13.77;96921.06;4969524;28;20498;-76
2022/01/09 08:23:08;;;;;;;12.65;6.50;;;;;;;22.70;13.98;96913.53;4965747;28;20039;-76
2022/01/09 08:25:34;;;;;;;11.88;6.00;;;;;;;22.68;14.16;96916.03;4962610;28;20177;-76
2022/01/09 08:28:00;;;;;;;15.07;6.55;;;;;;;22.50;14.13;96919.38;4960881;28;20035;-76
2022/01/09 08:30:26;;;;;;;13.95;5.95;;;;;;;22.20;14.65;96908.81;4971950;28;20031;-76
2022/01/09 08:32:53;;;;;;;18.05;7.43;;;;;;;22.06;14.82;96905.69;4971658;28;20550;-75
2022/01/09 08:35:20;;;;;;;10.70;5.00;;;;;;;22.57;14.41;96907.94;4966917;28;20035;-76
2022/01/09 08:37:47;;;;;;;13.77;6.32;;;;;;;22.85;14.10;96908.25;4969637;28;20507;-76
2022/01/09 08:40:22;;;;;;;11.82;5.43;;;;;;;22.89;13.85;96900.50;4968455;28;20038;-76
2022/01/09 08:42:50;;;;;;;14.10;7.30;;;;;;;21.70;14.66;96908.81;4971317;28;20036;-75
2022/01/09 08:45:17;;;;;;;12.38;6.03;;;;;;;22.42;14.35;96901.28;4972155;28;20046;-75
2022/01/09 08:47:43;;;;;;;11.73;5.60;;;;;;;22.82;14.16;96903.53;4968718;28;20085;-76
2022/01/09 08:50:11;;;;;;;10.77;5.15;;;;;;;23.28;13.80;96897.81;4969102;28;20033;-75
2022/01/09 08:52:37;;;;;;;11.18;5.25;;;;;;;23.72;13.28;96890.16;4973469;28;20031;-75
2022/01/09 08:55:04;;;;;;;12.65;5.47;;;;;;;23.70;13.36;96889.06;4970893;28;20479;-76
2022/01/09 08:57:30;;;;;;;12.57;5.68;;;;;;;23.71;13.29;96885.03;4973685;28;20039;-76
2022/01/09 08:59:57;;;;;;;10.02;4.47;;;;;;;23.65;13.32;96890.44;4970971;28;20038;-76
2022/01/09 09:02:23;;;;;;;10.50;4.70;;;;;;;23.51;13.55;96884.59;4969077;28;20035;-76
2022/01/09 09:04:49;;;;;;;9.77;4.35;;;;;;;23.35;13.36;96886.38;4968008;28;20034;-75
2022/01/09 09:07:18;;;;;;;11.90;3.45;;;;;;;23.23;13.54;96895.59;4965249;28;20109;-77
2022/01/09 09:09:45;;;;;;;8.50;3.67;;;;;;;23.25;13.58;96886.75;4962695;28;20751;-76
2022/01/09 09:12:11;;;;;;;9.00;3.67;;;;;;;22.93;13.58;96887.13;4961984;28;20038;-76
2022/01/09 09:14:37;;;;;;;8.05;3.75;;;;;;;23.10;13.58;96880.13;4970700;28;20041;-77
2022/01/09 09:17:04;;;;;;;6.90;3.35;;;;;;;22.84;13.75;96885.06;4968767;28;20078;-77
2022/01/09 09:19:31;;;;;;;8.38;3.65;;;;;;;23.18;13.71;96879.41;4964005;28;20043;-76
2022/01/09 09:21:57;;;;;;;5.32;3.15;;;;;;;23.33;13.58;96885.25;4962067;28;20026;-77
2022/01/09 09:24:23;;;;;;;4.90;2.75;;;;;;;23.45;13.36;96873.22;4967121;28;20100;-77
2022/01/09 09:26:49;;;;;;;7.25;2.97;;;;;;;23.38;13.35;96870.69;4971451;28;20440;-76
2022/01/09 09:29:15;;;;;;;6.93;3.45;;;;;;;23.57;13.31;96874.38;4969366;28;20035;-76
2022/01/09 09:31:41;;;;;;;7.18;3.63;;;;;;;23.33;13.14;96865.63;4972896;28;20347;-76
2022/01/09 09:34:08;;;;;;;5.30;2.90;;;;;;;23.62;13.22;96860.50;4969546;28;20066;-76
2022/01/09 09:36:35;;;;;;;6.35;3.60;;;;;;;23.14;13.31;96870.34;4969703;28;20051;-76
2022/01/09 09:39:05;;;;;;;8.95;2.97;;;;;;;23.19;13.56;96874.56;4972294;28;20087;-76
2022/01/09 09:41:31;;;;;;;10.23;4.50;;;;;;;22.79;13.81;96874.44;4965893;28;20026;-76
2022/01/09 09:43:57;;;;;;;6.88;3.95;;;;;;;22.61;13.85;96875.06;4963797;28;20098;-76
2022/01/09 09:46:25;;;;;;;6.43;2.80;;;;;;;22.83;13.73;96868.72;4962119;28;20121;-76
2022/01/09 09:48:52;;;;;;;4.13;2.25;;;;;;;23.02;13.94;96862.81;4972595;28;20521;-75
2022/01/09 09:51:18;;;;;;;4.93;2.75;;;;;;;23.65;13.39;96865.22;4964882;28;20067;-77
2022/01/09 09:53:45;;;;;;;4.18;2.50;;;;;;;23.98;12.67;96869.09;4972109;28;20078;-78
2022/01/09 09:56:11;;;;;;;6.45;2.42;;;;;;;23.91;13.00;96874.19;4968325;28;20114;-77
2022/01/09 09:58:41;;;;;;;4.97;2.35;;;;;;;23.71;13.04;96863.34;4974168;28;20027;-77
2022/01/09 10:01:22;;;;;;;3.33;2.33;;;;;;;23.39;13.35;96869.44;4978383;28;20035;-77
2022/01/09 10:03:55;;;;;;;4.88;1.95;;;;;;;23.38;13.28;96869.91;4971650;28;20270;-76
2022/01/09 10:06:41;;;;;;;5.20;2.65;;;;;;;23.51;12.92;96870.59;4970759;28;20134;-76
2022/01/09 10:09:10;;;;;;;5.38;2.92;;;;;;;24.05;12.81;96870.81;4971619;28;20670;-75
2022/01/09 10:11:58;;;;;;;4.82;2.88;;;;;;;23.43;12.87;96872.91;4971273;28;20039;-75
2022/01/09 10:14:27;;;;;;;4.35;3.05;;;;;;;23.61;13.25;96869.41;4964393;28;20026;-75
2022/01/09 10:17:09;;;;;;;5.75;2.75;;;;;;;23.35;13.03;96875.19;4969000;28;20491;-76
2022/01/09 10:19:52;;;;;;;7.78;2.70;;;;;;;23.49;12.97;96859.06;4972620;28;20437;-76
2022/01/09 10:22:37;;;;;;;5.53;2.88;;;;;;;23.77;12.68;96858.72;4969578;28;20411;-75
2022/01/09 10:25:20;;;;;;;4.03;1.90;;;;;;;24.05;12.93;96857.56;4973307;28;20038;-75
2022/01/09 10:27:48;;;;;;;3.50;2.30;;;;;;;23.74;13.29;96847.63;4977221;28;20030;-76
2022/01/09 10:30:15;;;;;;;5.28;2.55;;;;;;;23.96;12.62;96851.94;4973779;28;20065;-76
2022/01/09 10:32:42;;;;;;;3.83;2.58;;;;;;;23.97;12.80;96852.69;4971984;28;20031;-75
2022/01/09 10:35:18;;;;;;;5.40;2.30;;;;;;;24.29;12.88;96857.03;4972646;28;20074;-75
2022/01/09 10:37:49;;;;;;;6.45;2.95;;;;;;;23.92;12.78;96856.91;4973429;28;20532;-74
2022/01/09 10:40:22;;;;;;;10.90;4.30;;;;;;;22.76;13.39;96847.38;4972832;28;20035;-75
2022/01/09 10:43:07;;;;;;;6.85;3.45;;;;;;;22.91;13.36;96859.63;4974150;28;20062;-75
2022/01/09 10:45:36;;;;;;;4.20;2.55;;;;;;;23.22;13.39;96848.47;4973327;28;20050;-75
2022/01/09 10:48:20;;;;;;;4.82;2.80;;;;;;;23.08;12.99;96846.22;4971924;28;20027;-76
2022/01/09 10:50:48;;;;;;;5.50;2.70;;;;;;;23.60;12.81;96846.19;4971679;28;20026;-75
2022/01/09 10:53:32;;;;;;;6.78;3.15;;;;;;;23.51;12.74;96850.97;4973547;28;20027;-75
2022/01/09 10:56:11;;;;;;;5.15;2.50;;;;;;;23.81;12.60;96847.34;4974957;28;20023;-75
2022/01/09 10:58:56;;;;;;;7.43;3.67;;;;;;;23.53;12.57;96842.88;4972449;28;20479;-75
2022/01/09 11:01:31;;;;;;;5.90;2.70;;;;;;;23.69;12.70;96840.63;4973284;28;20043;-75
2022/01/09 11:04:06;;;;;;;4.57;2.35;;;;;;;24.09;12.61;96839.84;4971465;28;20045;-75
2022/01/09 11:06:36;;;;;;;6.22;2.90;;;;;;;24.65;12.30;96849.44;4972510;28;20039;-75
2022/01/09 11:09:04;;;;;;;5.70;2.67;;;;;;;25.00;12.06;96830.25;4971043;28;20034;-75
2022/01/09 11:11:36;;;;;;;13.45;4.18;;;;;;;25.13;11.66;96847.72;4970807;28;20097;-75
2022/01/09 11:14:06;;;;;;;7.25;3.10;;;;;;;24.73;11.55;96849.91;4973098;28;20042;-75
2022/01/09 11:16:34;;;;;;;5.88;2.70;;;;;;;24.90;11.91;96839.16;4973091;28;20054;-76
2022/01/09 11:19:06;;;;;;;6.75;2.95;;;;;;;24.73;12.06;96841.47;4972737;28;20426;-76
2022/01/09 11:21:32;;;;;;;8.50;2.60;;;;;;;25.03;11.86;96845.38;4971840;28;20116;-75
2022/01/09 11:24:20;;;;;;;7.88;2.90;;;;;;;24.94;11.36;96839.78;4972876;28;20098;-76
2022/01/09 11:26:53;;;;;;;9.23;2.85;;;;;;;24.81;12.01;96834.31;4977605;28;20048;-75
2022/01/09 11:29:37;;;;;;;5.95;2.80;;;;;;;24.35;12.30;96839.13;4970666;28;20049;-75
2022/01/09 11:32:20;;;;;;;6.22;2.50;;;;;;;24.34;12.13;96823.50;4967424;28;20054;-74